• Join FlightAware (Why Join?)
  • Login
  • US Flag 
09:06AM EDT


 

Airport Tracker/Info


-or-


 

Live Flight TrackerFlight Track Log ✈ RPA3161 ✈ 21-Jun-2013 ✈ KBTV - KDCA

Flight Track Log - Related Links

Times and Time Zones

All times are in EDT time to prevent confusion due to time zone crossing. See the RPA3161 flight status page for this flight to view local times or setup timezone preferences in your user account.

Time Position Orientation Groundspeed Altitude Reporting Facility
EDT Latitude Longitude Course Direction KTS MPH feet Rate Location/Type
01:00PM 44.2381 -73.1933 198° South 284 327 9,700  Level Boston Center
01:01PM 44.1525 -73.2039 185° South 300 345 11,800 2,520 Climbing Boston Center
01:02PM 44.0503 -73.2200 186° South 331 381 14,800 2,520 Climbing Boston Center
01:03PM 43.7690 -73.4055 195° South  Level FlightAware Approximate
01:03PM 43.9564 -73.2619 198° South 343 395 17,000  Level Boston Center
01:04PM 43.6692 -73.4428 195° South  Level FlightAware Approximate
01:04PM 43.8622 -73.3067 199° South 358 412 19,300  Level Boston Center
01:05PM 43.5708 -73.4861 198° South  Level FlightAware Approximate
01:05PM 43.7639 -73.3514 198° South 358 412 21,300  Level Boston Center
01:06PM 43.4726 -73.5306 198° South  Level FlightAware Approximate
01:06PM 43.6636 -73.3928 197° South 384 442 23,500  Level Boston Center
01:07PM 43.5569 -73.4428 199° South 389 448 25,300 1,200 Climbing Boston Center
01:08PM 43.4292 -73.4978 197° South 401 461 26,200 1,020 Climbing Boston Center
01:09PM 43.3203 -73.5475 198° South 406 467 27,400 1,140 Climbing Boston Center
01:10PM 43.2072 -73.5994 199° South 417 480 28,500 960 Climbing Boston Center
01:11PM 43.1047 -73.6458 198° South 431 496 29,400 720 Climbing Boston Center
01:12PM 42.9875 -73.7003 199° South 444 511 30,000 300 Climbing Boston Center
01:13PM 42.8639 -73.7544 198° South 454 522 30,000  Level Boston Center
01:14PM 42.7425 -73.8000 195° South 454 522 30,000  Level Boston Center
01:15PM 42.6114 -73.7858 175° South 460 529 30,000  Level Boston Center
01:16PM 42.4886 -73.7689 174° South 455 524 30,000  Level Boston Center
01:17PM 42.3575 -73.7494 174° South 462 532 30,000  Level Boston Center
01:18PM 42.2283 -73.7297 174° South 468 539 30,000  Level Boston Center
01:19PM 42.1036 -73.7078 173° South 468 539 30,000  Level Boston Center
01:20PM 41.9747 -73.6911 175° South 466 536 30,000  Level Boston Center
01:21PM 41.8478 -73.6719 174° South 466 536 30,000  Level Boston Center
01:22PM 41.7208 -73.6528 174° South 466 536 30,000  Level Boston Center
01:24PM 41.5231 -73.6169 172° South 453 521 30,000  Level New York Center
01:25PM 41.3964 -73.6006 174° South 453 521 30,000  Level New York Center
01:26PM 41.2867 -73.6619 203° Southwest 424 488 30,000  Level New York Center
01:27PM 41.2064 -73.7853 229° Southwest 414 476 30,000  Level New York Center
01:28PM 41.1283 -73.9031 229° Southwest 414 476 30,000  Level New York Center
01:29PM 41.0481 -74.0231 228° Southwest 428 493 30,000  Level New York Center
01:30PM 40.9719 -74.1403 229° Southwest 433 498 30,000  Level New York Center
01:31PM 40.8958 -74.2464 227° Southwest 438 504 30,000 -900 Level New York Center
01:32PM 40.8153 -74.3631 228° Southwest 438 504 28,300 -1,020 Descending New York Center
01:33PM 40.7431 -74.4797 231° Southwest 433 498 28,000 -720 Descending New York Center
01:34PM 40.6728 -74.5936 231° Southwest 417 480 26,900 -1,320 Descending New York Center
01:35PM 40.6042 -74.7100 232° Southwest 412 474 25,400 -960 Descending New York Center
01:36PM 40.5339 -74.8150 229° Southwest 406 467 25,000 -240 Descending New York Center
01:37PM 40.4572 -74.9225 227° Southwest 400 460 25,000 -420 Level New York Center
01:38PM 40.3850 -75.0244 227° Southwest 400 460 24,200 -1,140 Descending New York Center
01:39PM 40.3125 -75.1233 226° Southwest 400 460 22,800 -1,140 Descending New York Center
01:40PM 40.2442 -75.2222 228° Southwest 388 447 22,000 -420 Descending New York Center
01:41PM 40.1736 -75.3239 228° Southwest 383 441 22,000  Level New York Center
01:42PM 40.1053 -75.4197 227° Southwest 378 435 22,000  Level New York Center
01:43PM 40.0386 -75.5239 230° Southwest 378 435 22,000  Level New York Center
01:44PM 39.9697 -75.6300 230° Southwest 378 435 22,000  Level New York Center
01:45PM 39.9028 -75.7364 231° Southwest 389 448 22,000  Level New York Center
01:46PM 39.8336 -75.8425 230° Southwest 389 448 22,000 -240 Level New York Center
01:47PM 39.7642 -75.9508 230° Southwest 389 448 21,600 -1,380 Descending New York Center
01:48PM 39.6972 -76.0511 229° Southwest 389 448 19,300 -2,040 Descending New York Center
01:49PM 39.6303 -76.1486 228° Southwest 381 438 17,500 -2,100 Descending New York Center
01:50PM 39.5333 -76.3000 230° Southwest 343 395 14,200 -2,160 Descending Potomac TRACON
01:51PM 39.4667 -76.3833 224° Southwest 339 390 12,300 -1,140 Descending Potomac TRACON
01:52PM 39.4000 -76.4667 224° Southwest 332 382 12,000 -180 Descending Potomac TRACON
01:53PM 39.3167 -76.5333 212° Southwest 335 386 12,000 -300 Level Potomac TRACON
01:54PM 39.2500 -76.6000 218° Southwest 324 373 11,500 -1,020 Descending Potomac TRACON
01:55PM 39.1667 -76.6667 212° Southwest 305 351 10,000 -840 Descending Potomac TRACON
01:56PM 39.1167 -76.7167 218° Southwest 290 334 10,000 -420 Level Potomac TRACON
01:57PM 39.0667 -76.8000 232° Southwest 287 330 9,300 -1,320 Descending Potomac TRACON
01:58PM 39.0000 -76.8667 218° Southwest 283 326 7,400 -1,680 Descending Potomac TRACON
01:59PM 38.9667 -76.9500 243° Southwest 278 320 6,000 -720 Descending Potomac TRACON
02:00PM 38.9833 -77.0333 284° West 235 270 6,000 -720 Level Potomac TRACON
02:01PM 39.0333 -77.1000 314° West 228 262 4,600 -1,380 Descending Potomac TRACON
02:02PM 39.0333 -77.1667 270° West 223 257 3,300 -840 Descending Potomac TRACON
02:03PM 39.0000 -77.2000 218° Southwest 182 209 3,000 -240 Descending Potomac TRACON
02:04PM 38.9667 -77.1500 131° Southeast 168 193 2,900 -120 Descending Potomac TRACON